sensor_id;sensor_type;location;lat;lon;timestamp;P1;durP1;ratioP1;P2;durP2;ratioP2
72517;SDS011;60540;51.178;6.738;2022-12-18T00:01:36;13.38;;;6.65;;
72517;SDS011;60540;51.178;6.738;2022-12-18T00:04:03;15.18;;;6.70;;
72517;SDS011;60540;51.178;6.738;2022-12-18T00:06:36;10.50;;;5.90;;
72517;SDS011;60540;51.178;6.738;2022-12-18T00:09:02;14.15;;;5.97;;
72517;SDS011;60540;51.178;6.738;2022-12-18T00:11:29;13.80;;;5.43;;
72517;SDS011;60540;51.178;6.738;2022-12-18T00:13:56;12.48;;;5.28;;
72517;SDS011;60540;51.178;6.738;2022-12-18T00:16:23;11.77;;;5.28;;
72517;SDS011;60540;51.178;6.738;2022-12-18T00:18:49;9.57;;;5.18;;
72517;SDS011;60540;51.178;6.738;2022-12-18T00:21:17;11.68;;;5.45;;
72517;SDS011;60540;51.178;6.738;2022-12-18T00:23:44;11.88;;;5.53;;
72517;SDS011;60540;51.178;6.738;2022-12-18T00:26:11;11.85;;;5.35;;
72517;SDS011;60540;51.178;6.738;2022-12-18T00:28:40;12.88;;;6.05;;
72517;SDS011;60540;51.178;6.738;2022-12-18T00:31:08;12.18;;;5.93;;
72517;SDS011;60540;51.178;6.738;2022-12-18T00:33:35;11.55;;;5.32;;
72517;SDS011;60540;51.178;6.738;2022-12-18T00:36:01;13.10;;;6.53;;
72517;SDS011;60540;51.178;6.738;2022-12-18T00:38:28;12.20;;;5.78;;
72517;SDS011;60540;51.178;6.738;2022-12-18T00:40:54;18.60;;;6.88;;
72517;SDS011;60540;51.178;6.738;2022-12-18T00:43:19;15.35;;;7.47;;
72517;SDS011;60540;51.178;6.738;2022-12-18T00:45:45;16.88;;;6.53;;
72517;SDS011;60540;51.178;6.738;2022-12-18T00:48:10;13.60;;;5.90;;
72517;SDS011;60540;51.178;6.738;2022-12-18T00:50:36;11.27;;;5.82;;
72517;SDS011;60540;51.178;6.738;2022-12-18T00:53:02;11.85;;;5.90;;
72517;SDS011;60540;51.178;6.738;2022-12-18T00:55:27;13.18;;;6.78;;
72517;SDS011;60540;51.178;6.738;2022-12-18T00:57:53;17.02;;;6.40;;
72517;SDS011;60540;51.178;6.738;2022-12-18T01:00:19;12.93;;;6.55;;
72517;SDS011;60540;51.178;6.738;2022-12-18T01:02:44;16.20;;;6.53;;
72517;SDS011;60540;51.178;6.738;2022-12-18T01:05:11;10.80;;;5.82;;
72517;SDS011;60540;51.178;6.738;2022-12-18T01:07:37;14.70;;;5.80;;
72517;SDS011;60540;51.178;6.738;2022-12-18T01:10:03;11.77;;;5.95;;
72517;SDS011;60540;51.178;6.738;2022-12-18T01:12:29;15.25;;;6.55;;
72517;SDS011;60540;51.178;6.738;2022-12-18T01:14:55;17.63;;;6.80;;
72517;SDS011;60540;51.178;6.738;2022-12-18T01:17:21;16.45;;;6.18;;
72517;SDS011;60540;51.178;6.738;2022-12-18T01:19:47;14.65;;;6.82;;
72517;SDS011;60540;51.178;6.738;2022-12-18T01:22:12;13.10;;;6.95;;
72517;SDS011;60540;51.178;6.738;2022-12-18T01:24:38;14.05;;;6.82;;
72517;SDS011;60540;51.178;6.738;2022-12-18T01:27:03;14.98;;;7.63;;
72517;SDS011;60540;51.178;6.738;2022-12-18T01:29:29;13.18;;;6.80;;
72517;SDS011;60540;51.178;6.738;2022-12-18T01:31:55;16.98;;;6.32;;
72517;SDS011;60540;51.178;6.738;2022-12-18T01:34:22;14.70;;;6.95;;
72517;SDS011;60540;51.178;6.738;2022-12-18T01:36:50;14.75;;;7.15;;
72517;SDS011;60540;51.178;6.738;2022-12-18T01:39:19;12.20;;;6.65;;
72517;SDS011;60540;51.178;6.738;2022-12-18T01:41:44;12.35;;;5.75;;
72517;SDS011;60540;51.178;6.738;2022-12-18T01:49:59;13.50;;;6.13;;
72517;SDS011;60540;51.178;6.738;2022-12-18T01:52:29;12.00;;;5.65;;
72517;SDS011;60540;51.178;6.738;2022-12-18T01:54:57;13.32;;;6.35;;
72517;SDS011;60540;51.178;6.738;2022-12-18T01:57:23;11.15;;;5.63;;
72517;SDS011;60540;51.178;6.738;2022-12-18T01:59:50;12.60;;;5.57;;
72517;SDS011;60540;51.178;6.738;2022-12-18T02:02:18;12.07;;;5.85;;
72517;SDS011;60540;51.178;6.738;2022-12-18T02:04:45;12.65;;;5.85;;
72517;SDS011;60540;51.178;6.738;2022-12-18T02:10:00;13.65;;;6.22;;
72517;SDS011;60540;51.178;6.738;2022-12-18T02:12:42;13.75;;;5.95;;
72517;SDS011;60540;51.178;6.738;2022-12-18T02:15:19;10.85;;;5.85;;
72517;SDS011;60540;51.178;6.738;2022-12-18T02:25:57;14.95;;;6.53;;
72517;SDS011;60540;51.178;6.738;2022-12-18T02:28:31;12.98;;;5.95;;
72517;SDS011;60540;51.178;6.738;2022-12-18T02:30:59;14.35;;;6.18;;
72517;SDS011;60540;51.178;6.738;2022-12-18T02:33:27;10.45;;;5.80;;
72517;SDS011;60540;51.178;6.738;2022-12-18T02:35:53;13.75;;;6.13;;
72517;SDS011;60540;51.178;6.738;2022-12-18T02:38:19;15.95;;;7.00;;
72517;SDS011;60540;51.178;6.738;2022-12-18T02:40:45;15.57;;;7.20;;
72517;SDS011;60540;51.178;6.738;2022-12-18T02:43:12;14.18;;;6.88;;
72517;SDS011;60540;51.178;6.738;2022-12-18T02:45:46;13.35;;;6.95;;
72517;SDS011;60540;51.178;6.738;2022-12-18T02:48:21;17.05;;;7.97;;
72517;SDS011;60540;51.178;6.738;2022-12-18T02:53:43;14.10;;;6.35;;
72517;SDS011;60540;51.178;6.738;2022-12-18T02:56:19;12.80;;;5.25;;
72517;SDS011;60540;51.178;6.738;2022-12-18T03:01:28;12.82;;;5.35;;
72517;SDS011;60540;51.178;6.738;2022-12-18T03:04:02;11.07;;;5.60;;
72517;SDS011;60540;51.178;6.738;2022-12-18T03:06:42;12.50;;;5.35;;
72517;SDS011;60540;51.178;6.738;2022-12-18T03:09:14;12.95;;;5.93;;
72517;SDS011;60540;51.178;6.738;2022-12-18T03:11:46;11.57;;;5.45;;
72517;SDS011;60540;51.178;6.738;2022-12-18T03:14:35;12.45;;;6.38;;
72517;SDS011;60540;51.178;6.738;2022-12-18T03:17:03;12.63;;;6.00;;
72517;SDS011;60540;51.178;6.738;2022-12-18T03:19:31;13.13;;;6.30;;
72517;SDS011;60540;51.178;6.738;2022-12-18T03:21:58;15.63;;;6.95;;
72517;SDS011;60540;51.178;6.738;2022-12-18T03:24:26;10.77;;;6.18;;
72517;SDS011;60540;51.178;6.738;2022-12-18T03:26:54;9.52;;;4.50;;
72517;SDS011;60540;51.178;6.738;2022-12-18T03:29:28;13.70;;;6.22;;
72517;SDS011;60540;51.178;6.738;2022-12-18T03:32:00;12.48;;;5.35;;
72517;SDS011;60540;51.178;6.738;2022-12-18T03:34:30;10.18;;;5.15;;
72517;SDS011;60540;51.178;6.738;2022-12-18T03:36:58;12.45;;;5.20;;
72517;SDS011;60540;51.178;6.738;2022-12-18T03:39:24;13.20;;;6.78;;
72517;SDS011;60540;51.178;6.738;2022-12-18T03:41:55;9.10;;;4.55;;
72517;SDS011;60540;51.178;6.738;2022-12-18T03:47:05;15.55;;;5.57;;
72517;SDS011;60540;51.178;6.738;2022-12-18T03:52:50;14.82;;;6.15;;
72517;SDS011;60540;51.178;6.738;2022-12-18T03:55:19;12.93;;;5.95;;
72517;SDS011;60540;51.178;6.738;2022-12-18T03:57:47;15.55;;;5.30;;
72517;SDS011;60540;51.178;6.738;2022-12-18T04:00:14;13.52;;;5.45;;
72517;SDS011;60540;51.178;6.738;2022-12-18T04:02:43;11.80;;;5.68;;
72517;SDS011;60540;51.178;6.738;2022-12-18T04:05:10;14.80;;;5.82;;
72517;SDS011;60540;51.178;6.738;2022-12-18T04:07:36;11.80;;;5.72;;
72517;SDS011;60540;51.178;6.738;2022-12-18T04:10:04;12.60;;;5.93;;
72517;SDS011;60540;51.178;6.738;2022-12-18T04:12:32;12.98;;;5.05;;
72517;SDS011;60540;51.178;6.738;2022-12-18T04:14:58;9.60;;;5.50;;
72517;SDS011;60540;51.178;6.738;2022-12-18T04:17:24;13.02;;;6.57;;
72517;SDS011;60540;51.178;6.738;2022-12-18T04:19:50;10.82;;;5.68;;
72517;SDS011;60540;51.178;6.738;2022-12-18T04:22:16;8.18;;;4.68;;
72517;SDS011;60540;51.178;6.738;2022-12-18T04:24:41;11.48;;;5.28;;
72517;SDS011;60540;51.178;6.738;2022-12-18T04:27:07;10.10;;;5.30;;
72517;SDS011;60540;51.178;6.738;2022-12-18T04:29:32;13.27;;;5.70;;
72517;SDS011;60540;51.178;6.738;2022-12-18T04:31:58;11.25;;;6.15;;
72517;SDS011;60540;51.178;6.738;2022-12-18T04:34:24;13.05;;;5.93;;
72517;SDS011;60540;51.178;6.738;2022-12-18T04:36:50;11.88;;;6.78;;
72517;SDS011;60540;51.178;6.738;2022-12-18T04:39:19;10.00;;;5.60;;
72517;SDS011;60540;51.178;6.738;2022-12-18T04:41:45;14.73;;;5.82;;
72517;SDS011;60540;51.178;6.738;2022-12-18T04:44:10;12.65;;;6.47;;
72517;SDS011;60540;51.178;6.738;2022-12-18T04:46:36;14.48;;;7.32;;
72517;SDS011;60540;51.178;6.738;2022-12-18T04:49:01;9.20;;;5.55;;
72517;SDS011;60540;51.178;6.738;2022-12-18T04:51:27;15.10;;;7.53;;
72517;SDS011;60540;51.178;6.738;2022-12-18T04:53:53;11.05;;;6.35;;
72517;SDS011;60540;51.178;6.738;2022-12-18T04:56:19;14.43;;;7.07;;
72517;SDS011;60540;51.178;6.738;2022-12-18T04:58:44;12.10;;;5.72;;
72517;SDS011;60540;51.178;6.738;2022-12-18T05:01:11;10.23;;;5.93;;
72517;SDS011;60540;51.178;6.738;2022-12-18T05:03:37;11.75;;;5.30;;
72517;SDS011;60540;51.178;6.738;2022-12-18T05:06:04;13.93;;;5.55;;
72517;SDS011;60540;51.178;6.738;2022-12-18T05:08:30;12.65;;;5.13;;
72517;SDS011;60540;51.178;6.738;2022-12-18T05:11:00;11.23;;;5.95;;
72517;SDS011;60540;51.178;6.738;2022-12-18T05:13:27;11.52;;;5.55;;
72517;SDS011;60540;51.178;6.738;2022-12-18T05:15:53;13.13;;;5.78;;
72517;SDS011;60540;51.178;6.738;2022-12-18T05:18:19;12.55;;;5.80;;
72517;SDS011;60540;51.178;6.738;2022-12-18T05:20:45;11.90;;;5.70;;
72517;SDS011;60540;51.178;6.738;2022-12-18T05:23:11;7.65;;;4.55;;
72517;SDS011;60540;51.178;6.738;2022-12-18T05:25:37;11.02;;;5.03;;
72517;SDS011;60540;51.178;6.738;2022-12-18T05:28:02;7.78;;;4.63;;
72517;SDS011;60540;51.178;6.738;2022-12-18T05:30:28;13.40;;;4.82;;
72517;SDS011;60540;51.178;6.738;2022-12-18T05:32:53;12.98;;;5.55;;
72517;SDS011;60540;51.178;6.738;2022-12-18T05:35:19;10.82;;;5.30;;
72517;SDS011;60540;51.178;6.738;2022-12-18T05:37:45;10.57;;;4.90;;
72517;SDS011;60540;51.178;6.738;2022-12-18T05:40:11;13.05;;;5.05;;
72517;SDS011;60540;51.178;6.738;2022-12-18T05:42:37;9.70;;;5.07;;
72517;SDS011;60540;51.178;6.738;2022-12-18T05:45:03;11.63;;;5.68;;
72517;SDS011;60540;51.178;6.738;2022-12-18T05:47:29;10.98;;;5.15;;
72517;SDS011;60540;51.178;6.738;2022-12-18T05:49:55;13.98;;;5.63;;
72517;SDS011;60540;51.178;6.738;2022-12-18T05:52:21;11.10;;;4.47;;
72517;SDS011;60540;51.178;6.738;2022-12-18T05:54:46;11.68;;;4.97;;
72517;SDS011;60540;51.178;6.738;2022-12-18T05:57:12;11.50;;;4.72;;
72517;SDS011;60540;51.178;6.738;2022-12-18T05:59:38;9.25;;;4.75;;
72517;SDS011;60540;51.178;6.738;2022-12-18T06:02:03;13.68;;;4.80;;
72517;SDS011;60540;51.178;6.738;2022-12-18T06:04:32;15.48;;;4.65;;
72517;SDS011;60540;51.178;6.738;2022-12-18T06:06:57;9.32;;;4.30;;
72517;SDS011;60540;51.178;6.738;2022-12-18T06:09:23;10.85;;;4.90;;
72517;SDS011;60540;51.178;6.738;2022-12-18T06:11:49;11.00;;;5.38;;
72517;SDS011;60540;51.178;6.738;2022-12-18T06:14:16;8.90;;;4.63;;
72517;SDS011;60540;51.178;6.738;2022-12-18T06:16:42;9.65;;;4.55;;
72517;SDS011;60540;51.178;6.738;2022-12-18T06:19:12;10.10;;;4.50;;
72517;SDS011;60540;51.178;6.738;2022-12-18T06:21:40;9.73;;;4.95;;
72517;SDS011;60540;51.178;6.738;2022-12-18T06:24:05;7.93;;;4.63;;
72517;SDS011;60540;51.178;6.738;2022-12-18T06:26:31;12.52;;;5.38;;
72517;SDS011;60540;51.178;6.738;2022-12-18T06:28:57;12.45;;;5.13;;
72517;SDS011;60540;51.178;6.738;2022-12-18T06:31:22;12.35;;;4.80;;
72517;SDS011;60540;51.178;6.738;2022-12-18T06:33:48;10.40;;;4.68;;
72517;SDS011;60540;51.178;6.738;2022-12-18T06:36:14;10.70;;;4.43;;
72517;SDS011;60540;51.178;6.738;2022-12-18T06:38:41;9.63;;;5.70;;
72517;SDS011;60540;51.178;6.738;2022-12-18T06:41:08;11.38;;;5.53;;
72517;SDS011;60540;51.178;6.738;2022-12-18T06:43:37;9.50;;;4.85;;
72517;SDS011;60540;51.178;6.738;2022-12-18T06:46:03;11.23;;;5.10;;
72517;SDS011;60540;51.178;6.738;2022-12-18T06:48:30;10.93;;;5.43;;
72517;SDS011;60540;51.178;6.738;2022-12-18T06:50:56;8.85;;;4.63;;
72517;SDS011;60540;51.178;6.738;2022-12-18T06:53:22;8.27;;;4.90;;
72517;SDS011;60540;51.178;6.738;2022-12-18T06:55:48;10.52;;;5.13;;
72517;SDS011;60540;51.178;6.738;2022-12-18T06:58:13;10.20;;;5.10;;
72517;SDS011;60540;51.178;6.738;2022-12-18T07:00:39;10.15;;;5.15;;
72517;SDS011;60540;51.178;6.738;2022-12-18T07:03:05;9.93;;;4.85;;
72517;SDS011;60540;51.178;6.738;2022-12-18T07:05:30;13.68;;;4.97;;
72517;SDS011;60540;51.178;6.738;2022-12-18T07:07:56;9.60;;;4.00;;
72517;SDS011;60540;51.178;6.738;2022-12-18T07:10:23;11.30;;;4.25;;
72517;SDS011;60540;51.178;6.738;2022-12-18T07:12:48;10.32;;;4.57;;
72517;SDS011;60540;51.178;6.738;2022-12-18T07:15:14;10.82;;;5.15;;
72517;SDS011;60540;51.178;6.738;2022-12-18T07:17:40;10.73;;;5.38;;
72517;SDS011;60540;51.178;6.738;2022-12-18T07:20:06;7.80;;;3.97;;
72517;SDS011;60540;51.178;6.738;2022-12-18T07:22:32;10.82;;;4.70;;
72517;SDS011;60540;51.178;6.738;2022-12-18T07:24:57;10.50;;;3.90;;
72517;SDS011;60540;51.178;6.738;2022-12-18T07:27:24;10.93;;;5.10;;
72517;SDS011;60540;51.178;6.738;2022-12-18T07:29:49;9.98;;;4.28;;
72517;SDS011;60540;51.178;6.738;2022-12-18T07:32:15;9.15;;;4.20;;
72517;SDS011;60540;51.178;6.738;2022-12-18T07:34:40;10.45;;;4.57;;
72517;SDS011;60540;51.178;6.738;2022-12-18T07:37:06;8.65;;;4.22;;
72517;SDS011;60540;51.178;6.738;2022-12-18T07:39:32;10.88;;;4.75;;
72517;SDS011;60540;51.178;6.738;2022-12-18T07:41:58;11.77;;;5.95;;
72517;SDS011;60540;51.178;6.738;2022-12-18T07:44:42;14.75;;;5.60;;
72517;SDS011;60540;51.178;6.738;2022-12-18T07:47:07;9.15;;;4.50;;
72517;SDS011;60540;51.178;6.738;2022-12-18T07:49:33;11.05;;;4.50;;
72517;SDS011;60540;51.178;6.738;2022-12-18T07:51:59;10.50;;;5.15;;
72517;SDS011;60540;51.178;6.738;2022-12-18T07:54:24;13.15;;;5.22;;
72517;SDS011;60540;51.178;6.738;2022-12-18T07:56:51;11.77;;;4.65;;
72517;SDS011;60540;51.178;6.738;2022-12-18T07:59:17;14.77;;;5.80;;
72517;SDS011;60540;51.178;6.738;2022-12-18T08:01:43;11.50;;;5.53;;
72517;SDS011;60540;51.178;6.738;2022-12-18T08:04:08;12.38;;;5.75;;
72517;SDS011;60540;51.178;6.738;2022-12-18T08:06:34;9.57;;;5.22;;
72517;SDS011;60540;51.178;6.738;2022-12-18T08:08:59;13.43;;;5.60;;
72517;SDS011;60540;51.178;6.738;2022-12-18T08:11:26;10.07;;;5.03;;
72517;SDS011;60540;51.178;6.738;2022-12-18T08:13:53;12.73;;;4.75;;
72517;SDS011;60540;51.178;6.738;2022-12-18T08:16:19;11.80;;;4.85;;
72517;SDS011;60540;51.178;6.738;2022-12-18T08:18:46;8.30;;;4.68;;
72517;SDS011;60540;51.178;6.738;2022-12-18T08:28:31;9.05;;;4.25;;
72517;SDS011;60540;51.178;6.738;2022-12-18T08:30:57;11.35;;;4.25;;
72517;SDS011;60540;51.178;6.738;2022-12-18T08:33:22;10.52;;;4.82;;
72517;SDS011;60540;51.178;6.738;2022-12-18T08:35:48;11.25;;;5.28;;
72517;SDS011;60540;51.178;6.738;2022-12-18T08:38:14;11.50;;;5.00;;
72517;SDS011;60540;51.178;6.738;2022-12-18T08:40:40;9.45;;;5.22;;
72517;SDS011;60540;51.178;6.738;2022-12-18T08:43:06;8.45;;;4.78;;
72517;SDS011;60540;51.178;6.738;2022-12-18T08:45:51;19.38;;;4.20;;
72517;SDS011;60540;51.178;6.738;2022-12-18T08:48:16;8.68;;;4.00;;
72517;SDS011;60540;51.178;6.738;2022-12-18T08:50:42;9.05;;;4.78;;
72517;SDS011;60540;51.178;6.738;2022-12-18T08:53:08;12.10;;;5.85;;
72517;SDS011;60540;51.178;6.738;2022-12-18T08:55:34;10.10;;;4.75;;
72517;SDS011;60540;51.178;6.738;2022-12-18T08:58:00;10.75;;;5.22;;
72517;SDS011;60540;51.178;6.738;2022-12-18T09:00:25;10.90;;;5.53;;
72517;SDS011;60540;51.178;6.738;2022-12-18T09:02:51;13.35;;;6.03;;
72517;SDS011;60540;51.178;6.738;2022-12-18T09:05:17;14.10;;;6.55;;
72517;SDS011;60540;51.178;6.738;2022-12-18T09:07:42;14.15;;;5.25;;
72517;SDS011;60540;51.178;6.738;2022-12-18T09:10:08;12.23;;;5.00;;
72517;SDS011;60540;51.178;6.738;2022-12-18T09:12:33;13.73;;;5.75;;
72517;SDS011;60540;51.178;6.738;2022-12-18T09:14:59;12.02;;;5.63;;
72517;SDS011;60540;51.178;6.738;2022-12-18T09:17:25;11.23;;;5.10;;
72517;SDS011;60540;51.178;6.738;2022-12-18T09:19:52;12.73;;;5.30;;
72517;SDS011;60540;51.178;6.738;2022-12-18T09:22:17;10.75;;;5.35;;
72517;SDS011;60540;51.178;6.738;2022-12-18T09:24:43;12.85;;;5.65;;
72517;SDS011;60540;51.178;6.738;2022-12-18T09:27:08;12.60;;;5.85;;
72517;SDS011;60540;51.178;6.738;2022-12-18T09:29:34;13.38;;;5.55;;
72517;SDS011;60540;51.178;6.738;2022-12-18T09:32:00;12.38;;;4.65;;
72517;SDS011;60540;51.178;6.738;2022-12-18T09:34:25;9.30;;;4.20;;
72517;SDS011;60540;51.178;6.738;2022-12-18T09:36:51;12.68;;;5.68;;
72517;SDS011;60540;51.178;6.738;2022-12-18T09:39:16;8.20;;;4.80;;
72517;SDS011;60540;51.178;6.738;2022-12-18T09:44:39;10.65;;;4.50;;
72517;SDS011;60540;51.178;6.738;2022-12-18T09:49:45;12.52;;;5.57;;
72517;SDS011;60540;51.178;6.738;2022-12-18T09:52:29;13.52;;;4.90;;
72517;SDS011;60540;51.178;6.738;2022-12-18T09:55:13;12.93;;;6.13;;
72517;SDS011;60540;51.178;6.738;2022-12-18T09:57:55;14.35;;;6.20;;
72517;SDS011;60540;51.178;6.738;2022-12-18T10:00:23;11.63;;;5.95;;
72517;SDS011;60540;51.178;6.738;2022-12-18T10:02:51;14.13;;;5.05;;
72517;SDS011;60540;51.178;6.738;2022-12-18T10:08:07;11.88;;;5.30;;
72517;SDS011;60540;51.178;6.738;2022-12-18T10:10:57;13.95;;;5.80;;
72517;SDS011;60540;51.178;6.738;2022-12-18T10:13:34;13.35;;;5.97;;
72517;SDS011;60540;51.178;6.738;2022-12-18T10:16:27;11.52;;;6.10;;
72517;SDS011;60540;51.178;6.738;2022-12-18T10:19:02;17.73;;;6.35;;
72517;SDS011;60540;51.178;6.738;2022-12-18T10:21:39;11.38;;;6.53;;
72517;SDS011;60540;51.178;6.738;2022-12-18T10:26:42;11.70;;;5.75;;
72517;SDS011;60540;51.178;6.738;2022-12-18T10:29:12;13.73;;;6.68;;
72517;SDS011;60540;51.178;6.738;2022-12-18T10:31:39;11.35;;;5.53;;
72517;SDS011;60540;51.178;6.738;2022-12-18T10:34:14;13.05;;;6.30;;
72517;SDS011;60540;51.178;6.738;2022-12-18T10:36:40;10.57;;;5.78;;
72517;SDS011;60540;51.178;6.738;2022-12-18T10:39:14;14.85;;;5.80;;
72517;SDS011;60540;51.178;6.738;2022-12-18T10:41:41;10.73;;;5.88;;
72517;SDS011;60540;51.178;6.738;2022-12-18T10:44:11;11.63;;;6.25;;
72517;SDS011;60540;51.178;6.738;2022-12-18T10:46:48;11.63;;;4.80;;
72517;SDS011;60540;51.178;6.738;2022-12-18T10:49:34;12.93;;;5.70;;
72517;SDS011;60540;51.178;6.738;2022-12-18T10:52:20;12.02;;;5.50;;
72517;SDS011;60540;51.178;6.738;2022-12-18T10:54:54;13.55;;;5.65;;
72517;SDS011;60540;51.178;6.738;2022-12-18T10:57:34;11.63;;;5.78;;
72517;SDS011;60540;51.178;6.738;2022-12-18T11:02:54;12.07;;;4.78;;
72517;SDS011;60540;51.178;6.738;2022-12-18T11:05:33;10.55;;;4.78;;
72517;SDS011;60540;51.178;6.738;2022-12-18T11:08:00;15.07;;;5.70;;
72517;SDS011;60540;51.178;6.738;2022-12-18T11:10:33;14.20;;;6.50;;
72517;SDS011;60540;51.178;6.738;2022-12-18T11:13:09;14.85;;;6.20;;
72517;SDS011;60540;51.178;6.738;2022-12-18T11:15:36;11.23;;;5.63;;
72517;SDS011;60540;51.178;6.738;2022-12-18T11:18:02;12.73;;;5.47;;
72517;SDS011;60540;51.178;6.738;2022-12-18T11:20:30;14.38;;;6.22;;
72517;SDS011;60540;51.178;6.738;2022-12-18T11:23:01;12.38;;;5.65;;
72517;SDS011;60540;51.178;6.738;2022-12-18T11:25:28;12.27;;;5.80;;
72517;SDS011;60540;51.178;6.738;2022-12-18T11:27:59;14.50;;;6.18;;
72517;SDS011;60540;51.178;6.738;2022-12-18T11:30:30;12.35;;;6.20;;
72517;SDS011;60540;51.178;6.738;2022-12-18T11:35:34;14.07;;;5.35;;
72517;SDS011;60540;51.178;6.738;2022-12-18T11:38:18;11.50;;;5.60;;
72517;SDS011;60540;51.178;6.738;2022-12-18T11:40:50;13.15;;;6.70;;
72517;SDS011;60540;51.178;6.738;2022-12-18T11:43:21;15.27;;;6.22;;
72517;SDS011;60540;51.178;6.738;2022-12-18T11:46:25;13.63;;;5.80;;
72517;SDS011;60540;51.178;6.738;2022-12-18T11:48:45;13.88;;;6.28;;
72517;SDS011;60540;51.178;6.738;2022-12-18T11:51:15;15.50;;;6.30;;
72517;SDS011;60540;51.178;6.738;2022-12-18T11:53:48;12.48;;;6.13;;
72517;SDS011;60540;51.178;6.738;2022-12-18T11:56:26;12.48;;;6.28;;
72517;SDS011;60540;51.178;6.738;2022-12-18T11:59:08;13.40;;;5.55;;
72517;SDS011;60540;51.178;6.738;2022-12-18T12:02:04;12.98;;;6.18;;
72517;SDS011;60540;51.178;6.738;2022-12-18T12:04:45;12.27;;;6.45;;
72517;SDS011;60540;51.178;6.738;2022-12-18T12:07:45;10.40;;;4.97;;
72517;SDS011;60540;51.178;6.738;2022-12-18T12:13:30;14.05;;;6.00;;
72517;SDS011;60540;51.178;6.738;2022-12-18T12:21:53;11.90;;;5.82;;
72517;SDS011;60540;51.178;6.738;2022-12-18T12:32:36;16.80;;;7.45;;
72517;SDS011;60540;51.178;6.738;2022-12-18T12:35:20;15.27;;;6.75;;
72517;SDS011;60540;51.178;6.738;2022-12-18T12:40:29;11.65;;;5.55;;
72517;SDS011;60540;51.178;6.738;2022-12-18T12:43:02;17.15;;;7.25;;
72517;SDS011;60540;51.178;6.738;2022-12-18T12:45:50;14.27;;;6.15;;
72517;SDS011;60540;51.178;6.738;2022-12-18T12:48:17;17.92;;;7.50;;
72517;SDS011;60540;51.178;6.738;2022-12-18T12:50:54;12.05;;;5.97;;
72517;SDS011;60540;51.178;6.738;2022-12-18T12:53:33;13.70;;;6.93;;
72517;SDS011;60540;51.178;6.738;2022-12-18T12:56:01;16.23;;;7.63;;
72517;SDS011;60540;51.178;6.738;2022-12-18T12:58:33;15.85;;;6.85;;
72517;SDS011;60540;51.178;6.738;2022-12-18T13:01:14;15.60;;;6.82;;
72517;SDS011;60540;51.178;6.738;2022-12-18T13:04:01;13.63;;;6.38;;
72517;SDS011;60540;51.178;6.738;2022-12-18T13:07:10;13.65;;;6.72;;
72517;SDS011;60540;51.178;6.738;2022-12-18T13:09:36;13.75;;;7.00;;
72517;SDS011;60540;51.178;6.738;2022-12-18T13:12:36;15.38;;;7.25;;
72517;SDS011;60540;51.178;6.738;2022-12-18T13:15:21;14.95;;;7.15;;
72517;SDS011;60540;51.178;6.738;2022-12-18T13:17:48;15.75;;;6.78;;
72517;SDS011;60540;51.178;6.738;2022-12-18T13:20:14;15.95;;;7.25;;
72517;SDS011;60540;51.178;6.738;2022-12-18T13:22:42;20.85;;;8.43;;
72517;SDS011;60540;51.178;6.738;2022-12-18T13:28:02;15.30;;;7.55;;
72517;SDS011;60540;51.178;6.738;2022-12-18T13:40:59;15.20;;;7.28;;
72517;SDS011;60540;51.178;6.738;2022-12-18T13:43:33;13.57;;;6.65;;
72517;SDS011;60540;51.178;6.738;2022-12-18T13:48:57;19.52;;;7.30;;
72517;SDS011;60540;51.178;6.738;2022-12-18T13:51:35;14.02;;;7.10;;
72517;SDS011;60540;51.178;6.738;2022-12-18T13:54:02;16.35;;;7.78;;
72517;SDS011;60540;51.178;6.738;2022-12-18T13:56:31;20.60;;;8.10;;
72517;SDS011;60540;51.178;6.738;2022-12-18T14:01:58;18.90;;;8.15;;
72517;SDS011;60540;51.178;6.738;2022-12-18T14:04:28;16.48;;;7.40;;
72517;SDS011;60540;51.178;6.738;2022-12-18T14:06:57;18.10;;;8.20;;
72517;SDS011;60540;51.178;6.738;2022-12-18T14:09:28;17.45;;;7.35;;
72517;SDS011;60540;51.178;6.738;2022-12-18T14:11:55;17.98;;;8.52;;
72517;SDS011;60540;51.178;6.738;2022-12-18T14:14:43;15.77;;;7.10;;
72517;SDS011;60540;51.178;6.738;2022-12-18T14:17:10;16.15;;;7.90;;
72517;SDS011;60540;51.178;6.738;2022-12-18T14:19:36;14.95;;;8.35;;
72517;SDS011;60540;51.178;6.738;2022-12-18T14:22:02;17.98;;;7.30;;
72517;SDS011;60540;51.178;6.738;2022-12-18T14:24:28;16.20;;;8.43;;
72517;SDS011;60540;51.178;6.738;2022-12-18T14:26:57;14.95;;;7.65;;
72517;SDS011;60540;51.178;6.738;2022-12-18T14:29:39;16.23;;;7.20;;
72517;SDS011;60540;51.178;6.738;2022-12-18T14:34:39;18.42;;;7.75;;
72517;SDS011;60540;51.178;6.738;2022-12-18T14:37:05;18.15;;;7.93;;
72517;SDS011;60540;51.178;6.738;2022-12-18T14:39:32;19.60;;;8.65;;
72517;SDS011;60540;51.178;6.738;2022-12-18T14:41:57;19.17;;;9.25;;
72517;SDS011;60540;51.178;6.738;2022-12-18T14:44:23;18.00;;;8.30;;
72517;SDS011;60540;51.178;6.738;2022-12-18T14:46:49;20.75;;;10.30;;
72517;SDS011;60540;51.178;6.738;2022-12-18T14:49:32;16.30;;;8.27;;
72517;SDS011;60540;51.178;6.738;2022-12-18T14:52:05;16.75;;;9.13;;
72517;SDS011;60540;51.178;6.738;2022-12-18T14:54:36;17.88;;;8.77;;
72517;SDS011;60540;51.178;6.738;2022-12-18T14:57:03;18.98;;;9.25;;
72517;SDS011;60540;51.178;6.738;2022-12-18T14:59:30;17.98;;;8.25;;
72517;SDS011;60540;51.178;6.738;2022-12-18T15:04:33;18.40;;;8.48;;
72517;SDS011;60540;51.178;6.738;2022-12-18T15:07:05;17.50;;;8.38;;
72517;SDS011;60540;51.178;6.738;2022-12-18T15:09:35;19.13;;;7.53;;
72517;SDS011;60540;51.178;6.738;2022-12-18T15:12:01;19.75;;;9.23;;
72517;SDS011;60540;51.178;6.738;2022-12-18T15:14:31;18.67;;;9.45;;
72517;SDS011;60540;51.178;6.738;2022-12-18T15:17:15;16.05;;;8.77;;
72517;SDS011;60540;51.178;6.738;2022-12-18T15:19:42;18.70;;;8.38;;
72517;SDS011;60540;51.178;6.738;2022-12-18T15:22:19;15.05;;;7.78;;
72517;SDS011;60540;51.178;6.738;2022-12-18T15:24:47;19.92;;;8.05;;
72517;SDS011;60540;51.178;6.738;2022-12-18T15:27:46;17.83;;;9.15;;
72517;SDS011;60540;51.178;6.738;2022-12-18T15:32:38;18.88;;;9.57;;
72517;SDS011;60540;51.178;6.738;2022-12-18T15:37:39;20.92;;;8.90;;
72517;SDS011;60540;51.178;6.738;2022-12-18T15:40:04;17.58;;;8.93;;
72517;SDS011;60540;51.178;6.738;2022-12-18T15:42:31;19.88;;;9.63;;
72517;SDS011;60540;51.178;6.738;2022-12-18T15:45:15;16.92;;;8.02;;
72517;SDS011;60540;51.178;6.738;2022-12-18T15:47:41;17.08;;;10.02;;
72517;SDS011;60540;51.178;6.738;2022-12-18T15:50:09;21.15;;;8.82;;
72517;SDS011;60540;51.178;6.738;2022-12-18T15:52:42;22.38;;;10.13;;
72517;SDS011;60540;51.178;6.738;2022-12-18T15:55:12;18.48;;;8.93;;
72517;SDS011;60540;51.178;6.738;2022-12-18T15:57:58;18.58;;;8.80;;
72517;SDS011;60540;51.178;6.738;2022-12-18T16:00:24;20.42;;;9.40;;
72517;SDS011;60540;51.178;6.738;2022-12-18T16:02:49;16.83;;;8.85;;
72517;SDS011;60540;51.178;6.738;2022-12-18T16:05:15;18.05;;;8.27;;
72517;SDS011;60540;51.178;6.738;2022-12-18T16:07:42;16.85;;;7.70;;
72517;SDS011;60540;51.178;6.738;2022-12-18T16:10:08;22.73;;;9.48;;
72517;SDS011;60540;51.178;6.738;2022-12-18T16:12:34;21.58;;;9.45;;
72517;SDS011;60540;51.178;6.738;2022-12-18T16:15:00;17.60;;;8.93;;
72517;SDS011;60540;51.178;6.738;2022-12-18T16:17:26;18.20;;;8.68;;
72517;SDS011;60540;51.178;6.738;2022-12-18T16:19:51;21.50;;;9.05;;
72517;SDS011;60540;51.178;6.738;2022-12-18T16:22:18;22.08;;;10.27;;
72517;SDS011;60540;51.178;6.738;2022-12-18T16:24:49;18.92;;;8.85;;
72517;SDS011;60540;51.178;6.738;2022-12-18T16:27:15;25.60;;;10.65;;
72517;SDS011;60540;51.178;6.738;2022-12-18T16:29:41;20.80;;;10.70;;